sensor_id;sensor_type;location;lat;lon;timestamp;P1;durP1;ratioP1;P2;durP2;ratioP2
73276;SDS011;61501;43.316;5.372;2023-03-19T00:01:52;9.50;;;3.88;;
73276;SDS011;61501;43.316;5.372;2023-03-19T00:04:18;8.02;;;4.10;;
73276;SDS011;61501;43.316;5.372;2023-03-19T00:06:44;8.88;;;5.03;;
73276;SDS011;61501;43.316;5.372;2023-03-19T00:09:09;8.18;;;4.05;;
73276;SDS011;61501;43.316;5.372;2023-03-19T00:11:35;8.75;;;4.32;;
73276;SDS011;61501;43.316;5.372;2023-03-19T00:14:01;8.13;;;3.85;;
73276;SDS011;61501;43.316;5.372;2023-03-19T00:16:27;7.82;;;4.13;;
73276;SDS011;61501;43.316;5.372;2023-03-19T00:18:53;8.23;;;4.45;;
73276;SDS011;61501;43.316;5.372;2023-03-19T00:21:19;8.93;;;4.63;;
73276;SDS011;61501;43.316;5.372;2023-03-19T00:23:45;9.43;;;4.72;;
73276;SDS011;61501;43.316;5.372;2023-03-19T00:26:11;11.70;;;4.70;;
73276;SDS011;61501;43.316;5.372;2023-03-19T00:28:38;8.88;;;4.43;;
73276;SDS011;61501;43.316;5.372;2023-03-19T00:31:11;9.75;;;4.90;;
73276;SDS011;61501;43.316;5.372;2023-03-19T00:33:40;9.48;;;5.30;;
73276;SDS011;61501;43.316;5.372;2023-03-19T00:36:06;11.23;;;5.07;;
73276;SDS011;61501;43.316;5.372;2023-03-19T00:38:33;9.93;;;4.50;;
73276;SDS011;61501;43.316;5.372;2023-03-19T00:41:00;9.65;;;4.63;;
73276;SDS011;61501;43.316;5.372;2023-03-19T00:43:26;12.98;;;4.53;;
73276;SDS011;61501;43.316;5.372;2023-03-19T00:45:52;7.47;;;3.78;;
73276;SDS011;61501;43.316;5.372;2023-03-19T00:48:18;12.30;;;3.60;;
73276;SDS011;61501;43.316;5.372;2023-03-19T00:50:45;8.45;;;3.58;;
73276;SDS011;61501;43.316;5.372;2023-03-19T00:53:11;5.97;;;3.10;;
73276;SDS011;61501;43.316;5.372;2023-03-19T00:55:37;7.85;;;2.83;;
73276;SDS011;61501;43.316;5.372;2023-03-19T00:58:02;6.60;;;3.10;;
73276;SDS011;61501;43.316;5.372;2023-03-19T01:00:30;6.72;;;3.10;;
73276;SDS011;61501;43.316;5.372;2023-03-19T01:02:57;8.77;;;2.70;;
73276;SDS011;61501;43.316;5.372;2023-03-19T01:05:22;9.18;;;2.88;;
73276;SDS011;61501;43.316;5.372;2023-03-19T01:07:49;7.65;;;2.83;;
73276;SDS011;61501;43.316;5.372;2023-03-19T01:10:17;5.65;;;2.97;;
73276;SDS011;61501;43.316;5.372;2023-03-19T01:12:43;6.47;;;2.90;;
73276;SDS011;61501;43.316;5.372;2023-03-19T01:15:09;6.13;;;3.05;;
73276;SDS011;61501;43.316;5.372;2023-03-19T01:17:36;7.00;;;2.67;;
73276;SDS011;61501;43.316;5.372;2023-03-19T01:20:02;6.05;;;2.58;;
73276;SDS011;61501;43.316;5.372;2023-03-19T01:22:28;6.88;;;2.42;;
73276;SDS011;61501;43.316;5.372;2023-03-19T01:24:54;7.18;;;2.80;;
73276;SDS011;61501;43.316;5.372;2023-03-19T01:27:20;8.15;;;3.00;;
73276;SDS011;61501;43.316;5.372;2023-03-19T01:29:46;7.20;;;2.63;;
73276;SDS011;61501;43.316;5.372;2023-03-19T01:32:11;7.05;;;2.50;;
73276;SDS011;61501;43.316;5.372;2023-03-19T01:34:37;6.60;;;2.13;;
73276;SDS011;61501;43.316;5.372;2023-03-19T01:37:03;4.95;;;2.35;;
73276;SDS011;61501;43.316;5.372;2023-03-19T01:39:28;6.03;;;2.33;;
73276;SDS011;61501;43.316;5.372;2023-03-19T01:41:54;5.65;;;2.38;;
73276;SDS011;61501;43.316;5.372;2023-03-19T01:44:30;7.47;;;2.85;;
73276;SDS011;61501;43.316;5.372;2023-03-19T01:47:00;7.15;;;2.40;;
73276;SDS011;61501;43.316;5.372;2023-03-19T01:49:31;7.47;;;2.50;;
73276;SDS011;61501;43.316;5.372;2023-03-19T01:51:57;6.68;;;2.45;;
73276;SDS011;61501;43.316;5.372;2023-03-19T01:54:25;7.25;;;2.60;;
73276;SDS011;61501;43.316;5.372;2023-03-19T01:56:54;5.22;;;2.03;;
73276;SDS011;61501;43.316;5.372;2023-03-19T01:59:26;4.32;;;2.30;;
73276;SDS011;61501;43.316;5.372;2023-03-19T02:04:52;5.97;;;2.10;;
73276;SDS011;61501;43.316;5.372;2023-03-19T02:07:21;6.68;;;2.58;;
73276;SDS011;61501;43.316;5.372;2023-03-19T02:09:46;10.32;;;2.60;;
73276;SDS011;61501;43.316;5.372;2023-03-19T02:15:23;5.38;;;2.10;;
73276;SDS011;61501;43.316;5.372;2023-03-19T02:17:49;4.68;;;2.15;;
73276;SDS011;61501;43.316;5.372;2023-03-19T02:26:06;7.07;;;2.63;;
73276;SDS011;61501;43.316;5.372;2023-03-19T02:28:32;6.90;;;2.63;;
73276;SDS011;61501;43.316;5.372;2023-03-19T02:31:00;7.65;;;3.30;;
73276;SDS011;61501;43.316;5.372;2023-03-19T02:33:26;10.25;;;4.25;;
73276;SDS011;61501;43.316;5.372;2023-03-19T02:35:52;9.40;;;4.57;;
73276;SDS011;61501;43.316;5.372;2023-03-19T02:38:19;13.07;;;6.10;;
73276;SDS011;61501;43.316;5.372;2023-03-19T02:43:19;18.77;;;9.68;;
73276;SDS011;61501;43.316;5.372;2023-03-19T02:45:45;19.92;;;9.75;;
73276;SDS011;61501;43.316;5.372;2023-03-19T02:48:11;13.25;;;7.35;;
73276;SDS011;61501;43.316;5.372;2023-03-19T02:50:37;14.82;;;7.55;;
73276;SDS011;61501;43.316;5.372;2023-03-19T02:53:02;10.02;;;5.10;;
73276;SDS011;61501;43.316;5.372;2023-03-19T02:55:28;11.93;;;5.70;;
73276;SDS011;61501;43.316;5.372;2023-03-19T02:57:54;11.18;;;4.80;;
73276;SDS011;61501;43.316;5.372;2023-03-19T03:00:19;9.32;;;4.40;;
73276;SDS011;61501;43.316;5.372;2023-03-19T03:02:45;8.30;;;3.55;;
73276;SDS011;61501;43.316;5.372;2023-03-19T03:05:11;10.07;;;3.80;;
73276;SDS011;61501;43.316;5.372;2023-03-19T03:07:38;8.55;;;3.30;;
73276;SDS011;61501;43.316;5.372;2023-03-19T03:10:04;7.25;;;3.55;;
73276;SDS011;61501;43.316;5.372;2023-03-19T03:12:32;6.43;;;2.90;;
73276;SDS011;61501;43.316;5.372;2023-03-19T03:14:58;7.10;;;2.92;;
73276;SDS011;61501;43.316;5.372;2023-03-19T03:17:23;6.47;;;2.58;;
73276;SDS011;61501;43.316;5.372;2023-03-19T03:19:49;6.57;;;2.40;;
73276;SDS011;61501;43.316;5.372;2023-03-19T03:22:18;6.22;;;2.65;;
73276;SDS011;61501;43.316;5.372;2023-03-19T03:24:43;8.57;;;3.15;;
73276;SDS011;61501;43.316;5.372;2023-03-19T03:27:09;7.13;;;2.72;;
73276;SDS011;61501;43.316;5.372;2023-03-19T03:29:34;8.48;;;3.15;;
73276;SDS011;61501;43.316;5.372;2023-03-19T03:32:00;5.18;;;2.30;;
73276;SDS011;61501;43.316;5.372;2023-03-19T03:34:26;6.53;;;2.70;;
73276;SDS011;61501;43.316;5.372;2023-03-19T03:36:52;7.13;;;3.55;;
73276;SDS011;61501;43.316;5.372;2023-03-19T03:39:17;6.35;;;2.42;;
73276;SDS011;61501;43.316;5.372;2023-03-19T03:41:43;6.40;;;2.78;;
73276;SDS011;61501;43.316;5.372;2023-03-19T03:44:09;6.45;;;3.05;;
73276;SDS011;61501;43.316;5.372;2023-03-19T03:46:35;7.70;;;3.20;;
73276;SDS011;61501;43.316;5.372;2023-03-19T03:49:01;11.02;;;4.10;;
73276;SDS011;61501;43.316;5.372;2023-03-19T03:51:26;6.20;;;3.28;;
73276;SDS011;61501;43.316;5.372;2023-03-19T03:53:52;5.70;;;3.63;;
73276;SDS011;61501;43.316;5.372;2023-03-19T03:56:18;7.75;;;3.53;;
73276;SDS011;61501;43.316;5.372;2023-03-19T03:58:43;7.70;;;3.30;;
73276;SDS011;61501;43.316;5.372;2023-03-19T04:01:16;11.30;;;4.10;;
73276;SDS011;61501;43.316;5.372;2023-03-19T04:03:42;12.85;;;3.97;;
73276;SDS011;61501;43.316;5.372;2023-03-19T04:06:13;9.98;;;2.78;;
73276;SDS011;61501;43.316;5.372;2023-03-19T04:08:41;6.43;;;2.75;;
73276;SDS011;61501;43.316;5.372;2023-03-19T04:11:07;7.75;;;3.58;;
73276;SDS011;61501;43.316;5.372;2023-03-19T04:13:33;9.35;;;3.15;;
73276;SDS011;61501;43.316;5.372;2023-03-19T04:16:07;5.78;;;2.65;;
73276;SDS011;61501;43.316;5.372;2023-03-19T04:18:35;6.13;;;2.60;;
73276;SDS011;61501;43.316;5.372;2023-03-19T04:21:02;6.47;;;2.95;;
73276;SDS011;61501;43.316;5.372;2023-03-19T04:23:30;7.15;;;3.00;;
73276;SDS011;61501;43.316;5.372;2023-03-19T04:26:00;7.13;;;3.00;;
73276;SDS011;61501;43.316;5.372;2023-03-19T04:28:27;8.35;;;3.47;;
73276;SDS011;61501;43.316;5.372;2023-03-19T04:30:57;7.20;;;2.83;;
73276;SDS011;61501;43.316;5.372;2023-03-19T04:33:24;8.20;;;2.97;;
73276;SDS011;61501;43.316;5.372;2023-03-19T04:35:50;4.40;;;2.50;;
73276;SDS011;61501;43.316;5.372;2023-03-19T04:38:15;5.15;;;2.67;;
73276;SDS011;61501;43.316;5.372;2023-03-19T04:40:42;7.72;;;3.00;;
73276;SDS011;61501;43.316;5.372;2023-03-19T04:43:07;5.95;;;2.70;;
73276;SDS011;61501;43.316;5.372;2023-03-19T04:45:33;9.60;;;3.67;;
73276;SDS011;61501;43.316;5.372;2023-03-19T04:47:59;4.63;;;2.90;;
73276;SDS011;61501;43.316;5.372;2023-03-19T04:50:25;8.00;;;2.80;;
73276;SDS011;61501;43.316;5.372;2023-03-19T04:52:51;6.47;;;2.70;;
73276;SDS011;61501;43.316;5.372;2023-03-19T04:55:17;7.30;;;2.80;;
73276;SDS011;61501;43.316;5.372;2023-03-19T04:57:43;4.40;;;2.15;;
73276;SDS011;61501;43.316;5.372;2023-03-19T05:00:09;6.28;;;2.47;;
73276;SDS011;61501;43.316;5.372;2023-03-19T05:02:35;5.93;;;2.53;;
73276;SDS011;61501;43.316;5.372;2023-03-19T05:05:02;5.47;;;2.42;;
73276;SDS011;61501;43.316;5.372;2023-03-19T05:07:28;4.97;;;2.80;;
73276;SDS011;61501;43.316;5.372;2023-03-19T05:09:53;5.40;;;2.75;;
73276;SDS011;61501;43.316;5.372;2023-03-19T05:12:19;7.38;;;2.67;;
73276;SDS011;61501;43.316;5.372;2023-03-19T05:14:45;4.47;;;2.45;;
73276;SDS011;61501;43.316;5.372;2023-03-19T05:17:10;6.45;;;2.17;;
73276;SDS011;61501;43.316;5.372;2023-03-19T05:19:37;5.57;;;2.30;;
73276;SDS011;61501;43.316;5.372;2023-03-19T05:22:03;6.15;;;2.40;;
73276;SDS011;61501;43.316;5.372;2023-03-19T05:24:29;6.78;;;2.92;;
73276;SDS011;61501;43.316;5.372;2023-03-19T05:26:55;5.63;;;2.20;;
73276;SDS011;61501;43.316;5.372;2023-03-19T05:29:21;6.13;;;2.50;;
73276;SDS011;61501;43.316;5.372;2023-03-19T05:31:47;5.10;;;2.60;;
73276;SDS011;61501;43.316;5.372;2023-03-19T05:34:13;5.70;;;3.00;;
73276;SDS011;61501;43.316;5.372;2023-03-19T05:36:39;6.43;;;2.72;;
73276;SDS011;61501;43.316;5.372;2023-03-19T05:39:04;7.30;;;2.75;;
73276;SDS011;61501;43.316;5.372;2023-03-19T05:41:30;4.97;;;2.42;;
73276;SDS011;61501;43.316;5.372;2023-03-19T05:43:56;5.00;;;2.50;;
73276;SDS011;61501;43.316;5.372;2023-03-19T05:46:22;7.00;;;2.97;;
73276;SDS011;61501;43.316;5.372;2023-03-19T05:48:48;5.78;;;2.55;;
73276;SDS011;61501;43.316;5.372;2023-03-19T05:51:14;7.65;;;3.13;;
73276;SDS011;61501;43.316;5.372;2023-03-19T05:53:40;7.50;;;2.90;;
73276;SDS011;61501;43.316;5.372;2023-03-19T05:56:06;6.25;;;2.75;;
73276;SDS011;61501;43.316;5.372;2023-03-19T05:58:31;6.80;;;3.30;;
73276;SDS011;61501;43.316;5.372;2023-03-19T06:01:09;6.10;;;2.90;;
73276;SDS011;61501;43.316;5.372;2023-03-19T06:03:35;5.05;;;2.80;;
73276;SDS011;61501;43.316;5.372;2023-03-19T06:06:01;6.30;;;3.25;;
73276;SDS011;61501;43.316;5.372;2023-03-19T06:08:26;6.78;;;2.92;;
73276;SDS011;61501;43.316;5.372;2023-03-19T06:10:52;7.57;;;3.08;;
73276;SDS011;61501;43.316;5.372;2023-03-19T06:13:18;5.93;;;3.00;;
73276;SDS011;61501;43.316;5.372;2023-03-19T06:15:46;6.60;;;3.13;;
73276;SDS011;61501;43.316;5.372;2023-03-19T06:18:12;7.82;;;3.15;;
73276;SDS011;61501;43.316;5.372;2023-03-19T06:20:38;6.93;;;3.20;;
73276;SDS011;61501;43.316;5.372;2023-03-19T06:23:03;7.35;;;3.33;;
73276;SDS011;61501;43.316;5.372;2023-03-19T06:25:29;8.75;;;3.42;;
73276;SDS011;61501;43.316;5.372;2023-03-19T06:27:55;6.60;;;3.28;;
73276;SDS011;61501;43.316;5.372;2023-03-19T06:30:21;7.72;;;3.30;;
73276;SDS011;61501;43.316;5.372;2023-03-19T06:32:46;9.60;;;3.63;;
73276;SDS011;61501;43.316;5.372;2023-03-19T06:35:12;6.80;;;3.08;;
73276;SDS011;61501;43.316;5.372;2023-03-19T06:37:37;8.68;;;3.65;;
73276;SDS011;61501;43.316;5.372;2023-03-19T06:40:03;6.75;;;3.40;;
73276;SDS011;61501;43.316;5.372;2023-03-19T06:42:29;6.75;;;3.30;;
73276;SDS011;61501;43.316;5.372;2023-03-19T06:44:55;8.38;;;3.70;;
73276;SDS011;61501;43.316;5.372;2023-03-19T06:47:21;8.20;;;3.70;;
73276;SDS011;61501;43.316;5.372;2023-03-19T06:49:47;6.78;;;3.53;;
73276;SDS011;61501;43.316;5.372;2023-03-19T06:52:12;7.40;;;3.15;;
73276;SDS011;61501;43.316;5.372;2023-03-19T06:54:38;7.43;;;3.72;;
73276;SDS011;61501;43.316;5.372;2023-03-19T06:57:04;9.00;;;4.25;;
73276;SDS011;61501;43.316;5.372;2023-03-19T06:59:30;5.82;;;3.05;;
73276;SDS011;61501;43.316;5.372;2023-03-19T07:01:55;5.70;;;3.58;;
73276;SDS011;61501;43.316;5.372;2023-03-19T07:04:21;6.78;;;3.50;;
73276;SDS011;61501;43.316;5.372;2023-03-19T07:06:46;5.53;;;3.13;;
73276;SDS011;61501;43.316;5.372;2023-03-19T07:09:15;5.82;;;3.55;;
73276;SDS011;61501;43.316;5.372;2023-03-19T07:11:41;7.20;;;3.30;;
73276;SDS011;61501;43.316;5.372;2023-03-19T07:14:07;7.72;;;3.47;;
73276;SDS011;61501;43.316;5.372;2023-03-19T07:16:32;7.30;;;3.60;;
73276;SDS011;61501;43.316;5.372;2023-03-19T07:18:58;8.32;;;5.00;;
73276;SDS011;61501;43.316;5.372;2023-03-19T07:21:24;7.78;;;4.35;;
73276;SDS011;61501;43.316;5.372;2023-03-19T07:23:49;31.88;;;28.60;;
73276;SDS011;61501;43.316;5.372;2023-03-19T07:26:15;12.82;;;10.15;;
73276;SDS011;61501;43.316;5.372;2023-03-19T07:28:41;15.75;;;13.23;;
73276;SDS011;61501;43.316;5.372;2023-03-19T07:31:07;14.35;;;11.82;;
73276;SDS011;61501;43.316;5.372;2023-03-19T07:33:33;14.75;;;11.68;;
73276;SDS011;61501;43.316;5.372;2023-03-19T07:35:58;9.80;;;7.85;;
73276;SDS011;61501;43.316;5.372;2023-03-19T07:38:24;15.00;;;11.80;;
73276;SDS011;61501;43.316;5.372;2023-03-19T07:40:50;8.73;;;5.30;;
73276;SDS011;61501;43.316;5.372;2023-03-19T07:43:16;7.35;;;4.85;;
73276;SDS011;61501;43.316;5.372;2023-03-19T07:45:42;6.32;;;4.05;;
73276;SDS011;61501;43.316;5.372;2023-03-19T07:48:08;10.48;;;4.78;;
73276;SDS011;61501;43.316;5.372;2023-03-19T07:50:34;6.55;;;4.05;;
73276;SDS011;61501;43.316;5.372;2023-03-19T07:53:00;6.28;;;3.92;;
73276;SDS011;61501;43.316;5.372;2023-03-19T07:55:26;6.43;;;3.35;;
73276;SDS011;61501;43.316;5.372;2023-03-19T07:57:51;9.05;;;3.55;;
73276;SDS011;61501;43.316;5.372;2023-03-19T08:00:17;5.90;;;3.22;;
73276;SDS011;61501;43.316;5.372;2023-03-19T08:02:43;8.50;;;3.97;;
73276;SDS011;61501;43.316;5.372;2023-03-19T08:05:09;6.78;;;3.40;;
73276;SDS011;61501;43.316;5.372;2023-03-19T08:07:35;7.82;;;3.35;;
73276;SDS011;61501;43.316;5.372;2023-03-19T08:10:04;5.20;;;3.08;;
73276;SDS011;61501;43.316;5.372;2023-03-19T08:12:31;4.93;;;2.92;;
73276;SDS011;61501;43.316;5.372;2023-03-19T08:14:58;5.80;;;3.50;;
73276;SDS011;61501;43.316;5.372;2023-03-19T08:17:24;6.93;;;3.67;;
73276;SDS011;61501;43.316;5.372;2023-03-19T08:19:50;7.18;;;3.20;;
73276;SDS011;61501;43.316;5.372;2023-03-19T08:22:15;6.28;;;3.33;;
73276;SDS011;61501;43.316;5.372;2023-03-19T08:24:41;6.15;;;3.40;;
73276;SDS011;61501;43.316;5.372;2023-03-19T08:27:06;6.35;;;3.65;;
73276;SDS011;61501;43.316;5.372;2023-03-19T08:29:32;7.40;;;3.70;;
73276;SDS011;61501;43.316;5.372;2023-03-19T08:31:58;6.57;;;3.60;;
73276;SDS011;61501;43.316;5.372;2023-03-19T08:34:25;7.47;;;4.03;;
73276;SDS011;61501;43.316;5.372;2023-03-19T08:36:53;7.50;;;4.05;;
73276;SDS011;61501;43.316;5.372;2023-03-19T08:39:19;7.32;;;3.50;;
73276;SDS011;61501;43.316;5.372;2023-03-19T08:42:01;9.00;;;4.25;;
73276;SDS011;61501;43.316;5.372;2023-03-19T08:44:27;7.15;;;3.95;;
73276;SDS011;61501;43.316;5.372;2023-03-19T08:46:53;6.05;;;3.47;;
73276;SDS011;61501;43.316;5.372;2023-03-19T08:49:18;5.55;;;3.30;;
73276;SDS011;61501;43.316;5.372;2023-03-19T08:51:44;8.43;;;3.72;;
73276;SDS011;61501;43.316;5.372;2023-03-19T08:54:10;6.20;;;3.60;;
73276;SDS011;61501;43.316;5.372;2023-03-19T08:56:37;5.45;;;3.08;;
73276;SDS011;61501;43.316;5.372;2023-03-19T08:59:04;5.43;;;3.00;;
73276;SDS011;61501;43.316;5.372;2023-03-19T09:01:30;5.78;;;3.20;;
73276;SDS011;61501;43.316;5.372;2023-03-19T09:03:55;5.30;;;2.75;;
73276;SDS011;61501;43.316;5.372;2023-03-19T09:06:21;5.70;;;3.17;;
73276;SDS011;61501;43.316;5.372;2023-03-19T09:08:47;4.60;;;3.08;;
73276;SDS011;61501;43.316;5.372;2023-03-19T09:11:12;5.93;;;3.13;;
73276;SDS011;61501;43.316;5.372;2023-03-19T09:13:40;5.50;;;3.30;;
73276;SDS011;61501;43.316;5.372;2023-03-19T09:16:06;5.50;;;2.75;;
73276;SDS011;61501;43.316;5.372;2023-03-19T09:18:32;5.38;;;3.00;;
73276;SDS011;61501;43.316;5.372;2023-03-19T09:20:59;7.53;;;3.33;;
73276;SDS011;61501;43.316;5.372;2023-03-19T09:23:25;5.18;;;2.97;;
73276;SDS011;61501;43.316;5.372;2023-03-19T09:25:51;5.38;;;2.90;;
73276;SDS011;61501;43.316;5.372;2023-03-19T09:28:16;4.47;;;2.55;;
73276;SDS011;61501;43.316;5.372;2023-03-19T09:30:44;8.23;;;4.25;;
73276;SDS011;61501;43.316;5.372;2023-03-19T09:33:11;5.55;;;2.80;;
73276;SDS011;61501;43.316;5.372;2023-03-19T09:35:37;6.05;;;2.88;;
73276;SDS011;61501;43.316;5.372;2023-03-19T09:38:03;8.55;;;3.03;;
73276;SDS011;61501;43.316;5.372;2023-03-19T09:40:40;6.20;;;3.10;;
73276;SDS011;61501;43.316;5.372;2023-03-19T09:45:37;7.05;;;3.47;;
73276;SDS011;61501;43.316;5.372;2023-03-19T09:48:06;5.90;;;3.55;;
73276;SDS011;61501;43.316;5.372;2023-03-19T09:50:42;5.53;;;3.42;;
73276;SDS011;61501;43.316;5.372;2023-03-19T09:53:19;6.95;;;3.47;;
73276;SDS011;61501;43.316;5.372;2023-03-19T09:55:56;6.88;;;4.28;;
73276;SDS011;61501;43.316;5.372;2023-03-19T09:58:29;5.72;;;3.58;;
73276;SDS011;61501;43.316;5.372;2023-03-19T10:00:57;6.65;;;3.55;;
73276;SDS011;61501;43.316;5.372;2023-03-19T10:03:33;7.28;;;3.63;;
73276;SDS011;61501;43.316;5.372;2023-03-19T10:14:50;5.38;;;3.75;;
73276;SDS011;61501;43.316;5.372;2023-03-19T10:17:26;6.72;;;4.07;;
73276;SDS011;61501;43.316;5.372;2023-03-19T10:20:04;6.07;;;3.17;;
73276;SDS011;61501;43.316;5.372;2023-03-19T10:22:48;5.80;;;3.30;;
73276;SDS011;61501;43.316;5.372;2023-03-19T10:25:22;6.50;;;3.38;;
73276;SDS011;61501;43.316;5.372;2023-03-19T10:28:06;4.93;;;3.25;;
73276;SDS011;61501;43.316;5.372;2023-03-19T10:30:40;5.25;;;3.38;;
73276;SDS011;61501;43.316;5.372;2023-03-19T10:33:56;6.88;;;3.78;;
73276;SDS011;61501;43.316;5.372;2023-03-19T10:36:10;6.65;;;4.10;;
73276;SDS011;61501;43.316;5.372;2023-03-19T10:38:41;5.78;;;4.22;;
73276;SDS011;61501;43.316;5.372;2023-03-19T10:44:16;5.90;;;3.72;;
73276;SDS011;61501;43.316;5.372;2023-03-19T10:46:57;8.38;;;3.70;;
73276;SDS011;61501;43.316;5.372;2023-03-19T10:49:44;7.22;;;4.00;;
73276;SDS011;61501;43.316;5.372;2023-03-19T10:54:42;6.60;;;4.15;;
73276;SDS011;61501;43.316;5.372;2023-03-19T10:57:17;7.80;;;3.88;;
73276;SDS011;61501;43.316;5.372;2023-03-19T10:59:55;7.97;;;4.22;;
73276;SDS011;61501;43.316;5.372;2023-03-19T11:02:30;6.97;;;4.25;;
73276;SDS011;61501;43.316;5.372;2023-03-19T11:05:07;7.68;;;3.95;;
73276;SDS011;61501;43.316;5.372;2023-03-19T11:08:00;5.93;;;4.03;;
73276;SDS011;61501;43.316;5.372;2023-03-19T11:10:30;8.07;;;4.70;;
73276;SDS011;61501;43.316;5.372;2023-03-19T11:12:59;8.32;;;4.10;;
73276;SDS011;61501;43.316;5.372;2023-03-19T11:15:39;5.40;;;3.42;;
73276;SDS011;61501;43.316;5.372;2023-03-19T11:18:07;6.00;;;3.80;;
73276;SDS011;61501;43.316;5.372;2023-03-19T11:20:41;6.05;;;4.15;;
73276;SDS011;61501;43.316;5.372;2023-03-19T11:23:15;5.70;;;4.05;;
73276;SDS011;61501;43.316;5.372;2023-03-19T11:25:54;5.65;;;4.00;;
73276;SDS011;61501;43.316;5.372;2023-03-19T11:28:25;6.70;;;4.53;;
73276;SDS011;61501;43.316;5.372;2023-03-19T11:36:38;8.85;;;3.97;;
73276;SDS011;61501;43.316;5.372;2023-03-19T11:53:41;5.25;;;4.15;;
73276;SDS011;61501;43.316;5.372;2023-03-19T11:56:41;7.95;;;4.88;;
73276;SDS011;61501;43.316;5.372;2023-03-19T12:13:19;6.53;;;2.85;;
73276;SDS011;61501;43.316;5.372;2023-03-19T12:16:08;5.53;;;2.65;;
73276;SDS011;61501;43.316;5.372;2023-03-19T12:32:32;4.30;;;2.20;;
73276;SDS011;61501;43.316;5.372;2023-03-19T12:35:21;5.32;;;2.65;;
73276;SDS011;61501;43.316;5.372;2023-03-19T12:40:35;7.50;;;2.92;;
73276;SDS011;61501;43.316;5.372;2023-03-19T12:43:16;6.43;;;3.20;;
73276;SDS011;61501;43.316;5.372;2023-03-19T12:46:14;5.60;;;2.95;;
73276;SDS011;61501;43.316;5.372;2023-03-19T12:48:50;5.80;;;2.53;;
73276;SDS011;61501;43.316;5.372;2023-03-19T12:51:20;6.00;;;2.92;;
73276;SDS011;61501;43.316;5.372;2023-03-19T12:56:27;6.95;;;2.92;;
73276;SDS011;61501;43.316;5.372;2023-03-19T12:58:58;6.88;;;2.63;;
73276;SDS011;61501;43.316;5.372;2023-03-19T13:01:30;6.10;;;2.53;;
73276;SDS011;61501;43.316;5.372;2023-03-19T13:04:07;5.00;;;2.38;;
73276;SDS011;61501;43.316;5.372;2023-03-19T13:06:57;5.32;;;2.25;;
73276;SDS011;61501;43.316;5.372;2023-03-19T13:09:52;4.80;;;3.70;;
73276;SDS011;61501;43.316;5.372;2023-03-19T13:12:43;4.25;;;2.08;;
73276;SDS011;61501;43.316;5.372;2023-03-19T13:20:48;3.60;;;1.80;;
73276;SDS011;61501;43.316;5.372;2023-03-19T13:23:23;5.53;;;2.10;;
73276;SDS011;61501;43.316;5.372;2023-03-19T13:25:51;4.80;;;2.00;;
73276;SDS011;61501;43.316;5.372;2023-03-19T13:28:31;4.63;;;2.40;;
73276;SDS011;61501;43.316;5.372;2023-03-19T13:31:02;5.45;;;2.00;;
73276;SDS011;61501;43.316;5.372;2023-03-19T13:33:28;4.53;;;2.47;;
73276;SDS011;61501;43.316;5.372;2023-03-19T13:35:55;4.88;;;2.72;;
73276;SDS011;61501;43.316;5.372;2023-03-19T13:38:26;4.97;;;2.28;;
73276;SDS011;61501;43.316;5.372;2023-03-19T13:40:58;6.68;;;2.50;;
73276;SDS011;61501;43.316;5.372;2023-03-19T13:48:23;4.53;;;2.20;;
73276;SDS011;61501;43.316;5.372;2023-03-19T13:50:59;6.28;;;2.55;;
73276;SDS011;61501;43.316;5.372;2023-03-19T13:56:27;4.78;;;2.20;;
73276;SDS011;61501;43.316;5.372;2023-03-19T14:01:56;5.40;;;2.20;;
73276;SDS011;61501;43.316;5.372;2023-03-19T14:06:56;3.47;;;1.80;;
73276;SDS011;61501;43.316;5.372;2023-03-19T14:14:46;5.35;;;2.10;;
73276;SDS011;61501;43.316;5.372;2023-03-19T14:22:37;5.13;;;2.05;;
73276;SDS011;61501;43.316;5.372;2023-03-19T14:27:49;4.97;;;2.67;;
73276;SDS011;61501;43.316;5.372;2023-03-19T14:33:11;5.32;;;2.00;;
73276;SDS011;61501;43.316;5.372;2023-03-19T14:35:43;4.57;;;2.00;;
73276;SDS011;61501;43.316;5.372;2023-03-19T14:38:16;4.95;;;2.08;;
73276;SDS011;61501;43.316;5.372;2023-03-19T14:41:01;5.43;;;1.92;;
73276;SDS011;61501;43.316;5.372;2023-03-19T14:52:24;4.00;;;2.35;;
73276;SDS011;61501;43.316;5.372;2023-03-19T14:55:02;3.17;;;1.70;;
73276;SDS011;61501;43.316;5.372;2023-03-19T14:57:34;4.70;;;2.20;;
73276;SDS011;61501;43.316;5.372;2023-03-19T15:00:00;4.78;;;1.73;;
73276;SDS011;61501;43.316;5.372;2023-03-19T15:04:57;6.45;;;2.10;;
73276;SDS011;61501;43.316;5.372;2023-03-19T15:07:28;6.40;;;2.05;;
73276;SDS011;61501;43.316;5.372;2023-03-19T15:09:58;4.63;;;1.90;;
73276;SDS011;61501;43.316;5.372;2023-03-19T15:17:58;2.97;;;1.70;;
73276;SDS011;61501;43.316;5.372;2023-03-19T15:20:27;5.95;;;2.00;;
73276;SDS011;61501;43.316;5.372;2023-03-19T15:22:59;5.05;;;1.80;;
73276;SDS011;61501;43.316;5.372;2023-03-19T15:25:25;6.78;;;2.00;;
73276;SDS011;61501;43.316;5.372;2023-03-19T15:30:31;5.63;;;2.47;;
73276;SDS011;61501;43.316;5.372;2023-03-19T15:32:57;5.78;;;1.77;;
73276;SDS011;61501;43.316;5.372;2023-03-19T15:35:24;4.25;;;2.00;;
73276;SDS011;61501;43.316;5.372;2023-03-19T15:37:54;5.32;;;1.80;;
73276;SDS011;61501;43.316;5.372;2023-03-19T15:40:23;6.18;;;2.15;;
73276;SDS011;61501;43.316;5.372;2023-03-19T15:42:54;5.00;;;2.10;;
73276;SDS011;61501;43.316;5.372;2023-03-19T15:45:22;5.05;;;1.70;;
73276;SDS011;61501;43.316;5.372;2023-03-19T15:47:53;5.38;;;2.10;;
73276;SDS011;61501;43.316;5.372;2023-03-19T15:50:44;5.07;;;1.88;;
73276;SDS011;61501;43.316;5.372;2023-03-19T15:53:17;6.05;;;1.95;;
73276;SDS011;61501;43.316;5.372;2023-03-19T15:55:49;4.88;;;2.00;;
73276;SDS011;61501;43.316;5.372;2023-03-19T15:58:21;5.43;;;2.00;;
73276;SDS011;61501;43.316;5.372;2023-03-19T16:00:50;6.65;;;2.15;;
73276;SDS011;61501;43.316;5.372;2023-03-19T16:03:18;8.07;;;2.70;;
73276;SDS011;61501;43.316;5.372;2023-03-19T16:05:57;5.35;;;2.10;;
73276;SDS011;61501;43.316;5.372;2023-03-19T16:08:30;3.85;;;2.10;;
73276;SDS011;61501;43.316;5.372;2023-03-19T16:13:59;5.10;;;2.00;;
73276;SDS011;61501;43.316;5.372;2023-03-19T16:16:28;3.55;;;2.00;;
73276;SDS011;61501;43.316;5.372;2023-03-19T16:18:56;6.30;;;2.83;;
73276;SDS011;61501;43.316;5.372;2023-03-19T16:21:24;4.55;;;2.30;;
73276;SDS011;61501;43.316;5.372;2023-03-19T16:31:28;4.15;;;2.05;;
73276;SDS011;61501;43.316;5.372;2023-03-19T16:33:57;5.03;;;2.10;;
73276;SDS011;61501;43.316;5.372;2023-03-19T16:36:28;4.25;;;1.90;;
73276;SDS011;61501;43.316;5.372;2023-03-19T16:38:57;5.93;;;2.08;;
73276;SDS011;61501;43.316;5.372;2023-03-19T16:41:46;4.32;;;1.88;;
73276;SDS011;61501;43.316;5.372;2023-03-19T16:44:41;4.32;;;2.00;;
73276;SDS011;61501;43.316;5.372;2023-03-19T16:47:11;5.07;;;2.00;;
73276;SDS011;61501;43.316;5.372;2023-03-19T16:49:38;5.28;;;2.60;;
73276;SDS011;61501;43.316;5.372;2023-03-19T16:52:04;4.13;;;2.00;;
73276;SDS011;61501;43.316;5.372;2023-03-19T16:54:33;8.90;;;2.60;;
73276;SDS011;61501;43.316;5.372;2023-03-19T16:56:59;5.50;;;2.40;;
73276;SDS011;61501;43.316;5.372;2023-03-19T16:59:28;5.75;;;2.00;;
73276;SDS011;61501;43.316;5.372;2023-03-19T17:01:55;5.03;;;2.22;;
73276;SDS011;61501;43.316;5.372;2023-03-19T17:04:21;5.38;;;2.13;;
73276;SDS011;61501;43.316;5.372;2023-03-19T17:06:48;4.70;;;1.77;;
73276;SDS011;61501;43.316;5.372;2023-03-19T17:09:14;7.72;;;2.60;;
73276;SDS011;61501;43.316;5.372;2023-03-19T17:11:41;4.95;;;2.03;;
73276;SDS011;61501;43.316;5.372;2023-03-19T17:14:17;4.95;;;2.42;;
73276;SDS011;61501;43.316;5.372;2023-03-19T17:16:45;7.47;;;2.38;;
73276;SDS011;61501;43.316;5.372;2023-03-19T17:19:15;8.15;;;2.80;;
73276;SDS011;61501;43.316;5.372;2023-03-19T17:21:43;5.95;;;2.45;;
73276;SDS011;61501;43.316;5.372;2023-03-19T17:26:49;6.32;;;2.92;;
73276;SDS011;61501;43.316;5.372;2023-03-19T17:29:16;6.40;;;2.47;;